sensor_id;sensor_type;location;lat;lon;timestamp;P1;durP1;ratioP1;P2;durP2;ratioP2
19521;SDS011;9905;52.126;5.596;2023-05-21T00:00:16;3.20;;;2.92;;
19521;SDS011;9905;52.126;5.596;2023-05-21T00:02:44;2.90;;;2.70;;
19521;SDS011;9905;52.126;5.596;2023-05-21T00:05:11;2.97;;;2.72;;
19521;SDS011;9905;52.126;5.596;2023-05-21T00:07:39;2.90;;;2.70;;
19521;SDS011;9905;52.126;5.596;2023-05-21T00:10:06;2.95;;;2.78;;
19521;SDS011;9905;52.126;5.596;2023-05-21T00:12:33;3.03;;;2.83;;
19521;SDS011;9905;52.126;5.596;2023-05-21T00:15:00;3.15;;;2.85;;
19521;SDS011;9905;52.126;5.596;2023-05-21T00:17:28;2.97;;;2.78;;
19521;SDS011;9905;52.126;5.596;2023-05-21T00:19:55;3.05;;;2.85;;
19521;SDS011;9905;52.126;5.596;2023-05-21T00:22:22;3.47;;;3.28;;
19521;SDS011;9905;52.126;5.596;2023-05-21T00:24:48;3.03;;;2.78;;
19521;SDS011;9905;52.126;5.596;2023-05-21T00:27:16;3.08;;;2.83;;
19521;SDS011;9905;52.126;5.596;2023-05-21T00:29:42;2.88;;;2.78;;
19521;SDS011;9905;52.126;5.596;2023-05-21T00:32:09;3.20;;;2.90;;
19521;SDS011;9905;52.126;5.596;2023-05-21T00:34:37;3.63;;;3.42;;
19521;SDS011;9905;52.126;5.596;2023-05-21T00:37:04;3.10;;;2.90;;
19521;SDS011;9905;52.126;5.596;2023-05-21T00:39:33;3.03;;;2.88;;
19521;SDS011;9905;52.126;5.596;2023-05-21T00:42:00;3.20;;;3.00;;
19521;SDS011;9905;52.126;5.596;2023-05-21T00:44:27;3.35;;;3.15;;
19521;SDS011;9905;52.126;5.596;2023-05-21T00:46:58;3.15;;;2.95;;
19521;SDS011;9905;52.126;5.596;2023-05-21T00:49:26;3.88;;;3.58;;
19521;SDS011;9905;52.126;5.596;2023-05-21T00:51:54;3.90;;;3.53;;
19521;SDS011;9905;52.126;5.596;2023-05-21T00:54:21;4.07;;;3.67;;
19521;SDS011;9905;52.126;5.596;2023-05-21T00:56:49;4.18;;;3.78;;
19521;SDS011;9905;52.126;5.596;2023-05-21T00:59:16;3.88;;;3.58;;
19521;SDS011;9905;52.126;5.596;2023-05-21T01:01:44;4.00;;;3.05;;
19521;SDS011;9905;52.126;5.596;2023-05-21T01:04:17;3.65;;;3.42;;
19521;SDS011;9905;52.126;5.596;2023-05-21T01:06:45;4.70;;;3.55;;
19521;SDS011;9905;52.126;5.596;2023-05-21T01:09:13;3.67;;;3.47;;
19521;SDS011;9905;52.126;5.596;2023-05-21T01:11:41;4.05;;;3.63;;
19521;SDS011;9905;52.126;5.596;2023-05-21T01:14:11;4.28;;;3.70;;
19521;SDS011;9905;52.126;5.596;2023-05-21T01:16:41;3.80;;;3.60;;
19521;SDS011;9905;52.126;5.596;2023-05-21T01:19:12;4.15;;;3.95;;
19521;SDS011;9905;52.126;5.596;2023-05-21T01:21:43;4.57;;;4.28;;
19521;SDS011;9905;52.126;5.596;2023-05-21T01:24:13;4.18;;;3.97;;
19521;SDS011;9905;52.126;5.596;2023-05-21T01:26:40;4.50;;;4.20;;
19521;SDS011;9905;52.126;5.596;2023-05-21T01:29:08;4.45;;;4.10;;
19521;SDS011;9905;52.126;5.596;2023-05-21T01:31:40;4.03;;;3.65;;
19521;SDS011;9905;52.126;5.596;2023-05-21T01:34:18;4.10;;;3.83;;
19521;SDS011;9905;52.126;5.596;2023-05-21T01:36:51;4.40;;;4.00;;
19521;SDS011;9905;52.126;5.596;2023-05-21T01:39:24;4.30;;;4.10;;
19521;SDS011;9905;52.126;5.596;2023-05-21T01:41:56;5.20;;;4.30;;
19521;SDS011;9905;52.126;5.596;2023-05-21T01:44:25;4.10;;;3.90;;
19521;SDS011;9905;52.126;5.596;2023-05-21T01:46:52;4.03;;;3.70;;
19521;SDS011;9905;52.126;5.596;2023-05-21T01:49:21;4.43;;;4.13;;
19521;SDS011;9905;52.126;5.596;2023-05-21T01:51:48;4.30;;;4.07;;
19521;SDS011;9905;52.126;5.596;2023-05-21T01:54:15;4.32;;;4.03;;
19521;SDS011;9905;52.126;5.596;2023-05-21T01:56:43;4.20;;;3.90;;
19521;SDS011;9905;52.126;5.596;2023-05-21T01:59:11;4.65;;;4.35;;
19521;SDS011;9905;52.126;5.596;2023-05-21T02:01:38;4.30;;;4.00;;
19521;SDS011;9905;52.126;5.596;2023-05-21T02:04:06;4.78;;;4.22;;
19521;SDS011;9905;52.126;5.596;2023-05-21T02:06:32;4.60;;;4.20;;
19521;SDS011;9905;52.126;5.596;2023-05-21T02:08:59;4.43;;;4.10;;
19521;SDS011;9905;52.126;5.596;2023-05-21T02:11:26;4.00;;;3.70;;
19521;SDS011;9905;52.126;5.596;2023-05-21T02:13:55;4.47;;;4.18;;
19521;SDS011;9905;52.126;5.596;2023-05-21T02:16:21;5.32;;;4.30;;
19521;SDS011;9905;52.126;5.596;2023-05-21T02:18:49;4.50;;;4.20;;
19521;SDS011;9905;52.126;5.596;2023-05-21T02:21:17;4.22;;;3.83;;
19521;SDS011;9905;52.126;5.596;2023-05-21T02:23:45;4.32;;;4.00;;
19521;SDS011;9905;52.126;5.596;2023-05-21T02:26:11;3.97;;;3.78;;
19521;SDS011;9905;52.126;5.596;2023-05-21T02:28:38;4.50;;;4.10;;
19521;SDS011;9905;52.126;5.596;2023-05-21T02:31:06;4.90;;;4.53;;
19521;SDS011;9905;52.126;5.596;2023-05-21T02:33:33;5.07;;;4.65;;
19521;SDS011;9905;52.126;5.596;2023-05-21T02:36:00;4.75;;;4.38;;
19521;SDS011;9905;52.126;5.596;2023-05-21T02:38:27;4.55;;;4.25;;
19521;SDS011;9905;52.126;5.596;2023-05-21T02:40:56;4.50;;;4.10;;
19521;SDS011;9905;52.126;5.596;2023-05-21T02:43:23;5.00;;;4.70;;
19521;SDS011;9905;52.126;5.596;2023-05-21T02:45:50;4.90;;;4.63;;
19521;SDS011;9905;52.126;5.596;2023-05-21T02:48:18;4.22;;;3.92;;
19521;SDS011;9905;52.126;5.596;2023-05-21T02:50:44;5.47;;;4.13;;
19521;SDS011;9905;52.126;5.596;2023-05-21T02:53:11;4.60;;;4.20;;
19521;SDS011;9905;52.126;5.596;2023-05-21T02:55:38;4.55;;;4.25;;
19521;SDS011;9905;52.126;5.596;2023-05-21T02:58:06;4.43;;;4.03;;
19521;SDS011;9905;52.126;5.596;2023-05-21T03:00:32;4.45;;;4.03;;
19521;SDS011;9905;52.126;5.596;2023-05-21T03:02:59;4.45;;;4.05;;
19521;SDS011;9905;52.126;5.596;2023-05-21T03:05:27;5.10;;;4.70;;
19521;SDS011;9905;52.126;5.596;2023-05-21T03:07:54;4.22;;;3.97;;
19521;SDS011;9905;52.126;5.596;2023-05-21T03:10:21;3.90;;;3.70;;
19521;SDS011;9905;52.126;5.596;2023-05-21T03:12:48;4.88;;;4.20;;
19521;SDS011;9905;52.126;5.596;2023-05-21T03:15:14;4.60;;;4.20;;
19521;SDS011;9905;52.126;5.596;2023-05-21T03:17:42;4.38;;;3.95;;
19521;SDS011;9905;52.126;5.596;2023-05-21T03:20:09;4.10;;;3.80;;
19521;SDS011;9905;52.126;5.596;2023-05-21T03:22:41;4.35;;;3.95;;
19521;SDS011;9905;52.126;5.596;2023-05-21T03:25:08;4.13;;;3.83;;
19521;SDS011;9905;52.126;5.596;2023-05-21T03:27:35;3.75;;;3.55;;
19521;SDS011;9905;52.126;5.596;2023-05-21T03:30:02;4.13;;;3.92;;
19521;SDS011;9905;52.126;5.596;2023-05-21T03:32:30;6.72;;;4.13;;
19521;SDS011;9905;52.126;5.596;2023-05-21T03:34:57;4.07;;;3.88;;
19521;SDS011;9905;52.126;5.596;2023-05-21T03:37:24;4.25;;;3.95;;
19521;SDS011;9905;52.126;5.596;2023-05-21T03:39:52;3.80;;;3.60;;
19521;SDS011;9905;52.126;5.596;2023-05-21T03:42:19;4.88;;;4.47;;
19521;SDS011;9905;52.126;5.596;2023-05-21T03:44:46;4.30;;;4.07;;
19521;SDS011;9905;52.126;5.596;2023-05-21T03:47:12;4.57;;;4.18;;
19521;SDS011;9905;52.126;5.596;2023-05-21T03:49:39;4.22;;;3.92;;
19521;SDS011;9905;52.126;5.596;2023-05-21T03:52:06;4.97;;;4.68;;
19521;SDS011;9905;52.126;5.596;2023-05-21T03:54:32;4.22;;;3.92;;
19521;SDS011;9905;52.126;5.596;2023-05-21T03:57:01;4.43;;;4.13;;
19521;SDS011;9905;52.126;5.596;2023-05-21T03:59:27;3.95;;;3.60;;
19521;SDS011;9905;52.126;5.596;2023-05-21T04:01:54;4.20;;;3.90;;
19521;SDS011;9905;52.126;5.596;2023-05-21T04:04:21;4.45;;;4.15;;
19521;SDS011;9905;52.126;5.596;2023-05-21T04:06:49;4.57;;;4.18;;
19521;SDS011;9905;52.126;5.596;2023-05-21T04:09:18;4.63;;;4.22;;
19521;SDS011;9905;52.126;5.596;2023-05-21T04:11:44;4.50;;;4.20;;
19521;SDS011;9905;52.126;5.596;2023-05-21T04:14:13;5.20;;;4.70;;
19521;SDS011;9905;52.126;5.596;2023-05-21T04:16:40;5.00;;;4.57;;
19521;SDS011;9905;52.126;5.596;2023-05-21T04:19:08;4.10;;;3.80;;
19521;SDS011;9905;52.126;5.596;2023-05-21T04:21:34;5.65;;;5.03;;
19521;SDS011;9905;52.126;5.596;2023-05-21T04:24:01;4.55;;;4.30;;
19521;SDS011;9905;52.126;5.596;2023-05-21T04:26:28;5.40;;;5.00;;
19521;SDS011;9905;52.126;5.596;2023-05-21T04:28:58;4.70;;;4.40;;
19521;SDS011;9905;52.126;5.596;2023-05-21T04:31:29;4.57;;;4.28;;
19521;SDS011;9905;52.126;5.596;2023-05-21T04:33:56;4.28;;;4.05;;
19521;SDS011;9905;52.126;5.596;2023-05-21T04:36:23;4.65;;;4.30;;
19521;SDS011;9905;52.126;5.596;2023-05-21T04:38:53;4.78;;;4.30;;
19521;SDS011;9905;52.126;5.596;2023-05-21T04:41:19;4.97;;;4.57;;
19521;SDS011;9905;52.126;5.596;2023-05-21T04:43:46;5.07;;;4.78;;
19521;SDS011;9905;52.126;5.596;2023-05-21T04:46:13;5.28;;;4.43;;
19521;SDS011;9905;52.126;5.596;2023-05-21T04:48:41;5.03;;;4.57;;
19521;SDS011;9905;52.126;5.596;2023-05-21T04:51:09;8.25;;;4.20;;
19521;SDS011;9905;52.126;5.596;2023-05-21T04:53:35;3.90;;;3.70;;
19521;SDS011;9905;52.126;5.596;2023-05-21T04:56:02;4.32;;;3.92;;
19521;SDS011;9905;52.126;5.596;2023-05-21T04:58:29;4.80;;;4.43;;
19521;SDS011;9905;52.126;5.596;2023-05-21T05:00:58;4.90;;;4.28;;
19521;SDS011;9905;52.126;5.596;2023-05-21T05:03:27;4.65;;;4.25;;
19521;SDS011;9905;52.126;5.596;2023-05-21T05:05:56;4.72;;;4.43;;
19521;SDS011;9905;52.126;5.596;2023-05-21T05:08:22;5.00;;;4.57;;
19521;SDS011;9905;52.126;5.596;2023-05-21T05:10:49;4.10;;;3.80;;
19521;SDS011;9905;52.126;5.596;2023-05-21T05:13:16;4.25;;;3.95;;
19521;SDS011;9905;52.126;5.596;2023-05-21T05:15:43;4.63;;;4.32;;
19521;SDS011;9905;52.126;5.596;2023-05-21T05:18:10;6.38;;;4.45;;
19521;SDS011;9905;52.126;5.596;2023-05-21T05:20:36;5.30;;;5.00;;
19521;SDS011;9905;52.126;5.596;2023-05-21T05:23:04;5.40;;;5.00;;
19521;SDS011;9905;52.126;5.596;2023-05-21T05:25:31;5.22;;;4.80;;
19521;SDS011;9905;52.126;5.596;2023-05-21T05:27:58;4.97;;;4.57;;
19521;SDS011;9905;52.126;5.596;2023-05-21T05:30:25;5.22;;;4.93;;
19521;SDS011;9905;52.126;5.596;2023-05-21T05:32:51;4.50;;;4.30;;
19521;SDS011;9905;52.126;5.596;2023-05-21T05:35:18;4.95;;;4.55;;
19521;SDS011;9905;52.126;5.596;2023-05-21T05:37:45;5.88;;;4.80;;
19521;SDS011;9905;52.126;5.596;2023-05-21T05:40:13;5.15;;;4.72;;
19521;SDS011;9905;52.126;5.596;2023-05-21T05:42:40;5.40;;;5.10;;
19521;SDS011;9905;52.126;5.596;2023-05-21T05:45:07;5.28;;;4.78;;
19521;SDS011;9905;52.126;5.596;2023-05-21T05:47:34;5.13;;;4.78;;
19521;SDS011;9905;52.126;5.596;2023-05-21T05:50:01;4.70;;;4.40;;
19521;SDS011;9905;52.126;5.596;2023-05-21T05:52:28;5.05;;;4.68;;
19521;SDS011;9905;52.126;5.596;2023-05-21T05:54:55;4.47;;;4.18;;
19521;SDS011;9905;52.126;5.596;2023-05-21T05:57:23;4.60;;;4.30;;
19521;SDS011;9905;52.126;5.596;2023-05-21T05:59:49;4.82;;;4.43;;
19521;SDS011;9905;52.126;5.596;2023-05-21T06:02:16;5.03;;;4.65;;
19521;SDS011;9905;52.126;5.596;2023-05-21T06:04:43;4.72;;;4.25;;
19521;SDS011;9905;52.126;5.596;2023-05-21T06:07:10;5.15;;;4.65;;
19521;SDS011;9905;52.126;5.596;2023-05-21T06:09:36;5.00;;;4.60;;
19521;SDS011;9905;52.126;5.596;2023-05-21T06:12:04;5.22;;;4.72;;
19521;SDS011;9905;52.126;5.596;2023-05-21T06:14:32;6.30;;;5.20;;
19521;SDS011;9905;52.126;5.596;2023-05-21T06:16:59;6.80;;;5.45;;
19521;SDS011;9905;52.126;5.596;2023-05-21T06:19:26;5.10;;;4.63;;
19521;SDS011;9905;52.126;5.596;2023-05-21T06:21:52;5.40;;;4.90;;
19521;SDS011;9905;52.126;5.596;2023-05-21T06:24:19;4.70;;;4.30;;
19521;SDS011;9905;52.126;5.596;2023-05-21T06:26:46;5.88;;;4.90;;
19521;SDS011;9905;52.126;5.596;2023-05-21T06:29:13;5.28;;;4.90;;
19521;SDS011;9905;52.126;5.596;2023-05-21T06:31:42;5.22;;;4.88;;
19521;SDS011;9905;52.126;5.596;2023-05-21T06:34:09;6.07;;;5.57;;
19521;SDS011;9905;52.126;5.596;2023-05-21T06:36:36;6.10;;;5.60;;
19521;SDS011;9905;52.126;5.596;2023-05-21T06:39:03;5.28;;;4.78;;
19521;SDS011;9905;52.126;5.596;2023-05-21T06:41:29;5.60;;;5.30;;
19521;SDS011;9905;52.126;5.596;2023-05-21T06:43:56;5.30;;;4.90;;
19521;SDS011;9905;52.126;5.596;2023-05-21T06:46:23;5.63;;;5.25;;
19521;SDS011;9905;52.126;5.596;2023-05-21T06:48:53;6.47;;;5.97;;
19521;SDS011;9905;52.126;5.596;2023-05-21T06:51:20;5.65;;;5.25;;
19521;SDS011;9905;52.126;5.596;2023-05-21T06:53:47;9.32;;;5.63;;
19521;SDS011;9905;52.126;5.596;2023-05-21T06:56:16;6.00;;;5.55;;
19521;SDS011;9905;52.126;5.596;2023-05-21T06:58:43;5.57;;;5.18;;
19521;SDS011;9905;52.126;5.596;2023-05-21T07:01:10;6.10;;;5.68;;
19521;SDS011;9905;52.126;5.596;2023-05-21T07:03:38;6.18;;;5.63;;
19521;SDS011;9905;52.126;5.596;2023-05-21T07:06:06;5.57;;;5.20;;
19521;SDS011;9905;52.126;5.596;2023-05-21T07:08:33;5.68;;;5.28;;
19521;SDS011;9905;52.126;5.596;2023-05-21T07:10:59;6.40;;;5.68;;
19521;SDS011;9905;52.126;5.596;2023-05-21T07:13:26;6.18;;;5.53;;
19521;SDS011;9905;52.126;5.596;2023-05-21T07:15:55;5.80;;;5.30;;
19521;SDS011;9905;52.126;5.596;2023-05-21T07:18:22;5.78;;;5.28;;
19521;SDS011;9905;52.126;5.596;2023-05-21T07:20:49;5.72;;;5.25;;
19521;SDS011;9905;52.126;5.596;2023-05-21T07:23:17;5.63;;;5.22;;
19521;SDS011;9905;52.126;5.596;2023-05-21T07:25:45;6.22;;;5.18;;
19521;SDS011;9905;52.126;5.596;2023-05-21T07:28:12;5.85;;;5.35;;
19521;SDS011;9905;52.126;5.596;2023-05-21T07:30:38;6.45;;;5.90;;
19521;SDS011;9905;52.126;5.596;2023-05-21T07:33:05;6.28;;;5.85;;
19521;SDS011;9905;52.126;5.596;2023-05-21T07:35:32;5.70;;;5.18;;
19521;SDS011;9905;52.126;5.596;2023-05-21T07:37:58;5.43;;;5.03;;
19521;SDS011;9905;52.126;5.596;2023-05-21T07:40:26;5.78;;;5.32;;
19521;SDS011;9905;52.126;5.596;2023-05-21T07:42:53;5.65;;;5.15;;
19521;SDS011;9905;52.126;5.596;2023-05-21T07:45:20;5.55;;;5.10;;
19521;SDS011;9905;52.126;5.596;2023-05-21T07:47:47;5.60;;;5.13;;
19521;SDS011;9905;52.126;5.596;2023-05-21T07:50:13;6.72;;;6.22;;
19521;SDS011;9905;52.126;5.596;2023-05-21T07:52:40;6.05;;;5.45;;
19521;SDS011;9905;52.126;5.596;2023-05-21T07:55:07;5.97;;;5.47;;
19521;SDS011;9905;52.126;5.596;2023-05-21T07:57:36;5.72;;;5.15;;
19521;SDS011;9905;52.126;5.596;2023-05-21T08:00:03;6.57;;;4.68;;
19521;SDS011;9905;52.126;5.596;2023-05-21T08:02:33;5.60;;;5.18;;
19521;SDS011;9905;52.126;5.596;2023-05-21T08:05:00;5.18;;;4.88;;
19521;SDS011;9905;52.126;5.596;2023-05-21T08:07:26;6.13;;;5.15;;
19521;SDS011;9905;52.126;5.596;2023-05-21T08:09:53;5.25;;;4.85;;
19521;SDS011;9905;52.126;5.596;2023-05-21T08:12:20;5.20;;;4.80;;
19521;SDS011;9905;52.126;5.596;2023-05-21T08:14:48;5.43;;;5.03;;
19521;SDS011;9905;52.126;5.596;2023-05-21T08:17:15;5.78;;;5.38;;
19521;SDS011;9905;52.126;5.596;2023-05-21T08:19:42;5.03;;;4.72;;
19521;SDS011;9905;52.126;5.596;2023-05-21T08:22:08;5.20;;;4.80;;
19521;SDS011;9905;52.126;5.596;2023-05-21T08:24:35;5.85;;;5.38;;
19521;SDS011;9905;52.126;5.596;2023-05-21T08:27:02;5.45;;;5.00;;
19521;SDS011;9905;52.126;5.596;2023-05-21T08:29:29;5.40;;;5.00;;
19521;SDS011;9905;52.126;5.596;2023-05-21T08:31:58;5.32;;;4.93;;
19521;SDS011;9905;52.126;5.596;2023-05-21T08:34:25;5.65;;;4.85;;
19521;SDS011;9905;52.126;5.596;2023-05-21T08:36:51;5.18;;;4.47;;
19521;SDS011;9905;52.126;5.596;2023-05-21T08:39:18;5.43;;;5.03;;
19521;SDS011;9905;52.126;5.596;2023-05-21T08:41:45;5.80;;;5.30;;
19521;SDS011;9905;52.126;5.596;2023-05-21T08:44:16;5.32;;;4.82;;
19521;SDS011;9905;52.126;5.596;2023-05-21T08:46:46;5.80;;;5.40;;
19521;SDS011;9905;52.126;5.596;2023-05-21T08:49:17;6.15;;;5.63;;
19521;SDS011;9905;52.126;5.596;2023-05-21T08:51:51;5.65;;;5.25;;
19521;SDS011;9905;52.126;5.596;2023-05-21T08:54:18;6.25;;;5.75;;
19521;SDS011;9905;52.126;5.596;2023-05-21T08:56:46;6.15;;;5.55;;
19521;SDS011;9905;52.126;5.596;2023-05-21T08:59:13;5.90;;;5.18;;
19521;SDS011;9905;52.126;5.596;2023-05-21T09:01:41;6.30;;;5.60;;
19521;SDS011;9905;52.126;5.596;2023-05-21T09:04:11;5.95;;;5.32;;
19521;SDS011;9905;52.126;5.596;2023-05-21T09:06:41;5.60;;;5.30;;
19521;SDS011;9905;52.126;5.596;2023-05-21T09:09:10;6.10;;;5.70;;
19521;SDS011;9905;52.126;5.596;2023-05-21T09:11:45;6.22;;;5.40;;
19521;SDS011;9905;52.126;5.596;2023-05-21T09:14:13;5.85;;;5.32;;
19521;SDS011;9905;52.126;5.596;2023-05-21T09:16:40;5.65;;;5.15;;
19521;SDS011;9905;52.126;5.596;2023-05-21T09:19:07;5.57;;;5.18;;
19521;SDS011;9905;52.126;5.596;2023-05-21T09:21:34;5.30;;;4.93;;
19521;SDS011;9905;52.126;5.596;2023-05-21T09:24:02;5.97;;;5.47;;
19521;SDS011;9905;52.126;5.596;2023-05-21T09:26:29;5.72;;;5.32;;
19521;SDS011;9905;52.126;5.596;2023-05-21T09:28:56;5.28;;;4.78;;
19521;SDS011;9905;52.126;5.596;2023-05-21T09:31:24;5.90;;;5.32;;
19521;SDS011;9905;52.126;5.596;2023-05-21T09:33:52;5.63;;;5.20;;
19521;SDS011;9905;52.126;5.596;2023-05-21T09:36:19;5.22;;;4.90;;
19521;SDS011;9905;52.126;5.596;2023-05-21T09:38:47;5.57;;;5.18;;
19521;SDS011;9905;52.126;5.596;2023-05-21T09:41:15;5.55;;;5.15;;
19521;SDS011;9905;52.126;5.596;2023-05-21T09:43:42;6.18;;;4.88;;
19521;SDS011;9905;52.126;5.596;2023-05-21T09:46:09;5.53;;;5.03;;
19521;SDS011;9905;52.126;5.596;2023-05-21T09:48:36;5.68;;;5.13;;
19521;SDS011;9905;52.126;5.596;2023-05-21T09:51:06;4.85;;;4.55;;
19521;SDS011;9905;52.126;5.596;2023-05-21T09:53:34;5.45;;;5.05;;
19521;SDS011;9905;52.126;5.596;2023-05-21T09:56:01;6.00;;;5.40;;
19521;SDS011;9905;52.126;5.596;2023-05-21T09:58:30;4.68;;;4.38;;
19521;SDS011;9905;52.126;5.596;2023-05-21T10:00:59;5.07;;;4.55;;
19521;SDS011;9905;52.126;5.596;2023-05-21T10:03:26;5.57;;;4.78;;
19521;SDS011;9905;52.126;5.596;2023-05-21T10:05:55;5.53;;;5.13;;
19521;SDS011;9905;52.126;5.596;2023-05-21T10:08:26;5.68;;;5.28;;
19521;SDS011;9905;52.126;5.596;2023-05-21T10:10:58;5.80;;;5.30;;
19521;SDS011;9905;52.126;5.596;2023-05-21T10:13:26;5.18;;;4.72;;
19521;SDS011;9905;52.126;5.596;2023-05-21T10:15:56;6.45;;;5.43;;
19521;SDS011;9905;52.126;5.596;2023-05-21T10:18:27;5.70;;;5.30;;
19521;SDS011;9905;52.126;5.596;2023-05-21T10:20:55;5.35;;;4.85;;
19521;SDS011;9905;52.126;5.596;2023-05-21T10:23:22;5.93;;;5.38;;
19521;SDS011;9905;52.126;5.596;2023-05-21T10:25:50;5.50;;;5.10;;
19521;SDS011;9905;52.126;5.596;2023-05-21T10:28:18;5.90;;;5.10;;
19521;SDS011;9905;52.126;5.596;2023-05-21T10:30:45;6.10;;;5.60;;
19521;SDS011;9905;52.126;5.596;2023-05-21T10:33:14;6.80;;;5.60;;
19521;SDS011;9905;52.126;5.596;2023-05-21T10:35:41;6.00;;;5.47;;
19521;SDS011;9905;52.126;5.596;2023-05-21T10:38:11;5.88;;;5.38;;
19521;SDS011;9905;52.126;5.596;2023-05-21T10:40:39;6.07;;;5.55;;
19521;SDS011;9905;52.126;5.596;2023-05-21T10:43:16;6.68;;;6.07;;
19521;SDS011;9905;52.126;5.596;2023-05-21T10:46:01;6.00;;;5.53;;
19521;SDS011;9905;52.126;5.596;2023-05-21T10:48:47;6.30;;;5.80;;
19521;SDS011;9905;52.126;5.596;2023-05-21T10:51:24;6.90;;;6.22;;
19521;SDS011;9905;52.126;5.596;2023-05-21T10:56:53;6.82;;;6.32;;
19521;SDS011;9905;52.126;5.596;2023-05-21T10:59:30;7.65;;;6.95;;
19521;SDS011;9905;52.126;5.596;2023-05-21T11:02:05;7.15;;;6.50;;
19521;SDS011;9905;52.126;5.596;2023-05-21T11:04:34;7.68;;;6.97;;
19521;SDS011;9905;52.126;5.596;2023-05-21T11:07:04;7.47;;;6.40;;
19521;SDS011;9905;52.126;5.596;2023-05-21T11:09:30;7.72;;;7.13;;
19521;SDS011;9905;52.126;5.596;2023-05-21T11:11:57;8.07;;;7.38;;
19521;SDS011;9905;52.126;5.596;2023-05-21T11:14:29;6.60;;;6.10;;
19521;SDS011;9905;52.126;5.596;2023-05-21T11:16:59;6.43;;;6.03;;
19521;SDS011;9905;52.126;5.596;2023-05-21T11:19:35;7.93;;;7.05;;
19521;SDS011;9905;52.126;5.596;2023-05-21T11:22:06;7.05;;;6.45;;
19521;SDS011;9905;52.126;5.596;2023-05-21T11:24:36;6.72;;;6.22;;
19521;SDS011;9905;52.126;5.596;2023-05-21T11:27:04;6.90;;;6.40;;
19521;SDS011;9905;52.126;5.596;2023-05-21T11:32:12;7.13;;;6.63;;
19521;SDS011;9905;52.126;5.596;2023-05-21T11:34:46;7.45;;;6.78;;
19521;SDS011;9905;52.126;5.596;2023-05-21T11:37:26;7.70;;;7.00;;
19521;SDS011;9905;52.126;5.596;2023-05-21T11:39:55;6.82;;;6.40;;
19521;SDS011;9905;52.126;5.596;2023-05-21T11:42:27;7.47;;;6.75;;
19521;SDS011;9905;52.126;5.596;2023-05-21T11:44:57;7.20;;;6.70;;
19521;SDS011;9905;52.126;5.596;2023-05-21T11:47:25;6.78;;;6.18;;
19521;SDS011;9905;52.126;5.596;2023-05-21T11:49:54;6.85;;;6.25;;
19521;SDS011;9905;52.126;5.596;2023-05-21T11:52:23;6.53;;;6.03;;
19521;SDS011;9905;52.126;5.596;2023-05-21T11:54:51;6.63;;;6.13;;
19521;SDS011;9905;52.126;5.596;2023-05-21T11:57:19;7.00;;;6.50;;
19521;SDS011;9905;52.126;5.596;2023-05-21T11:59:47;6.22;;;5.72;;
19521;SDS011;9905;52.126;5.596;2023-05-21T12:02:15;7.68;;;6.95;;
19521;SDS011;9905;52.126;5.596;2023-05-21T12:04:43;7.30;;;6.80;;
19521;SDS011;9905;52.126;5.596;2023-05-21T12:07:12;9.38;;;7.78;;
19521;SDS011;9905;52.126;5.596;2023-05-21T12:09:40;6.57;;;6.07;;
19521;SDS011;9905;52.126;5.596;2023-05-21T12:12:07;6.70;;;6.20;;
19521;SDS011;9905;52.126;5.596;2023-05-21T12:14:34;7.32;;;6.63;;
19521;SDS011;9905;52.126;5.596;2023-05-21T12:17:01;6.85;;;6.35;;
19521;SDS011;9905;52.126;5.596;2023-05-21T12:19:30;6.43;;;5.95;;
19521;SDS011;9905;52.126;5.596;2023-05-21T12:21:59;6.07;;;5.68;;
19521;SDS011;9905;52.126;5.596;2023-05-21T12:24:28;6.18;;;5.72;;
19521;SDS011;9905;52.126;5.596;2023-05-21T12:26:55;6.97;;;5.80;;
19521;SDS011;9905;52.126;5.596;2023-05-21T12:29:25;6.35;;;5.90;;
19521;SDS011;9905;52.126;5.596;2023-05-21T12:31:52;6.60;;;6.20;;
19521;SDS011;9905;52.126;5.596;2023-05-21T12:34:37;6.30;;;5.78;;
19521;SDS011;9905;52.126;5.596;2023-05-21T12:37:06;7.28;;;6.68;;
19521;SDS011;9905;52.126;5.596;2023-05-21T12:39:38;7.03;;;6.53;;
19521;SDS011;9905;52.126;5.596;2023-05-21T12:42:06;7.00;;;6.40;;
19521;SDS011;9905;52.126;5.596;2023-05-21T12:44:33;6.75;;;6.15;;
19521;SDS011;9905;52.126;5.596;2023-05-21T12:47:00;6.28;;;5.78;;
19521;SDS011;9905;52.126;5.596;2023-05-21T12:49:34;5.90;;;5.50;;
19521;SDS011;9905;52.126;5.596;2023-05-21T12:52:06;6.18;;;5.63;;
19521;SDS011;9905;52.126;5.596;2023-05-21T12:54:35;7.20;;;6.05;;
19521;SDS011;9905;52.126;5.596;2023-05-21T12:57:08;6.22;;;5.78;;
19521;SDS011;9905;52.126;5.596;2023-05-21T12:59:45;6.07;;;5.68;;
19521;SDS011;9905;52.126;5.596;2023-05-21T13:02:20;5.72;;;5.32;;
19521;SDS011;9905;52.126;5.596;2023-05-21T13:04:48;6.20;;;5.72;;
19521;SDS011;9905;52.126;5.596;2023-05-21T13:07:19;6.85;;;6.25;;
19521;SDS011;9905;52.126;5.596;2023-05-21T13:09:45;6.30;;;5.80;;
19521;SDS011;9905;52.126;5.596;2023-05-21T13:12:14;6.28;;;5.88;;
19521;SDS011;9905;52.126;5.596;2023-05-21T13:14:40;6.32;;;5.80;;
19521;SDS011;9905;52.126;5.596;2023-05-21T13:17:07;6.40;;;5.90;;
19521;SDS011;9905;52.126;5.596;2023-05-21T13:19:34;5.70;;;5.30;;
19521;SDS011;9905;52.126;5.596;2023-05-21T13:22:01;6.80;;;6.18;;
19521;SDS011;9905;52.126;5.596;2023-05-21T13:24:28;6.88;;;5.78;;
19521;SDS011;9905;52.126;5.596;2023-05-21T13:26:55;8.75;;;7.95;;
19521;SDS011;9905;52.126;5.596;2023-05-21T13:29:23;7.13;;;6.57;;
19521;SDS011;9905;52.126;5.596;2023-05-21T13:31:50;7.25;;;6.55;;
19521;SDS011;9905;52.126;5.596;2023-05-21T13:34:16;7.30;;;6.60;;
19521;SDS011;9905;52.126;5.596;2023-05-21T13:36:43;6.60;;;6.10;;
19521;SDS011;9905;52.126;5.596;2023-05-21T13:39:10;6.75;;;6.18;;
19521;SDS011;9905;52.126;5.596;2023-05-21T13:41:37;6.00;;;5.60;;
19521;SDS011;9905;52.126;5.596;2023-05-21T13:44:04;7.15;;;6.55;;
19521;SDS011;9905;52.126;5.596;2023-05-21T13:46:32;7.50;;;6.65;;
19521;SDS011;9905;52.126;5.596;2023-05-21T13:49:03;6.30;;;5.80;;
19521;SDS011;9905;52.126;5.596;2023-05-21T13:51:30;6.88;;;6.20;;
19521;SDS011;9905;52.126;5.596;2023-05-21T13:53:57;6.50;;;5.88;;
19521;SDS011;9905;52.126;5.596;2023-05-21T13:56:23;6.40;;;5.68;;
19521;SDS011;9905;52.126;5.596;2023-05-21T13:58:50;6.50;;;5.85;;
19521;SDS011;9905;52.126;5.596;2023-05-21T14:01:17;6.40;;;5.88;;
19521;SDS011;9905;52.126;5.596;2023-05-21T14:03:45;6.10;;;5.60;;
19521;SDS011;9905;52.126;5.596;2023-05-21T14:06:12;7.35;;;6.75;;
19521;SDS011;9905;52.126;5.596;2023-05-21T14:08:38;7.68;;;7.07;;
19521;SDS011;9905;52.126;5.596;2023-05-21T14:11:07;7.32;;;6.57;;
19521;SDS011;9905;52.126;5.596;2023-05-21T14:13:33;7.00;;;6.43;;
19521;SDS011;9905;52.126;5.596;2023-05-21T14:16:00;6.93;;;6.43;;
19521;SDS011;9905;52.126;5.596;2023-05-21T14:18:27;7.20;;;6.70;;
19521;SDS011;9905;52.126;5.596;2023-05-21T14:20:55;6.90;;;6.30;;
19521;SDS011;9905;52.126;5.596;2023-05-21T14:23:21;6.35;;;5.75;;
19521;SDS011;9905;52.126;5.596;2023-05-21T14:25:48;6.40;;;5.93;;
19521;SDS011;9905;52.126;5.596;2023-05-21T14:28:15;6.47;;;5.97;;
19521;SDS011;9905;52.126;5.596;2023-05-21T14:30:41;6.47;;;5.93;;
19521;SDS011;9905;52.126;5.596;2023-05-21T14:33:08;6.00;;;5.50;;
19521;SDS011;9905;52.126;5.596;2023-05-21T14:35:37;6.47;;;5.95;;
19521;SDS011;9905;52.126;5.596;2023-05-21T14:38:06;6.55;;;6.10;;
19521;SDS011;9905;52.126;5.596;2023-05-21T14:40:33;9.43;;;8.52;;
19521;SDS011;9905;52.126;5.596;2023-05-21T14:43:00;7.75;;;6.68;;
19521;SDS011;9905;52.126;5.596;2023-05-21T14:45:27;7.70;;;7.07;;
19521;SDS011;9905;52.126;5.596;2023-05-21T14:47:54;9.02;;;8.23;;
19521;SDS011;9905;52.126;5.596;2023-05-21T14:50:20;6.93;;;6.30;;
19521;SDS011;9905;52.126;5.596;2023-05-21T14:52:47;7.30;;;6.80;;
19521;SDS011;9905;52.126;5.596;2023-05-21T14:55:15;6.40;;;6.00;;
19521;SDS011;9905;52.126;5.596;2023-05-21T14:57:42;6.88;;;6.38;;
19521;SDS011;9905;52.126;5.596;2023-05-21T15:00:10;7.25;;;6.38;;
19521;SDS011;9905;52.126;5.596;2023-05-21T15:02:37;6.25;;;5.75;;
19521;SDS011;9905;52.126;5.596;2023-05-21T15:05:04;7.72;;;7.03;;
19521;SDS011;9905;52.126;5.596;2023-05-21T15:07:31;7.30;;;6.70;;
19521;SDS011;9905;52.126;5.596;2023-05-21T15:09:58;7.25;;;6.63;;